sensor_id;sensor_type;location;lat;lon;timestamp;temperature;humidity
39621;DHT22;25309;48.686;9.170;2023-12-07T00:02:07;3.30;99.90
39621;DHT22;25309;48.686;9.170;2023-12-07T00:04:36;3.30;99.90
39621;DHT22;25309;48.686;9.170;2023-12-07T00:07:03;3.30;99.90
39621;DHT22;25309;48.686;9.170;2023-12-07T00:09:30;3.30;99.90
39621;DHT22;25309;48.686;9.170;2023-12-07T00:11:57;3.30;99.90
39621;DHT22;25309;48.686;9.170;2023-12-07T00:14:24;3.30;99.90
39621;DHT22;25309;48.686;9.170;2023-12-07T00:16:51;3.40;99.90
39621;DHT22;25309;48.686;9.170;2023-12-07T00:19:18;3.30;99.90
39621;DHT22;25309;48.686;9.170;2023-12-07T00:21:47;3.20;99.90
39621;DHT22;25309;48.686;9.170;2023-12-07T00:24:13;3.20;99.90
39621;DHT22;25309;48.686;9.170;2023-12-07T00:26:40;3.10;99.90
39621;DHT22;25309;48.686;9.170;2023-12-07T00:29:07;3.00;99.90
39621;DHT22;25309;48.686;9.170;2023-12-07T00:31:34;3.00;99.90
39621;DHT22;25309;48.686;9.170;2023-12-07T00:34:01;3.00;99.90
39621;DHT22;25309;48.686;9.170;2023-12-07T00:36:28;3.10;99.90
39621;DHT22;25309;48.686;9.170;2023-12-07T00:38:57;3.10;99.90
39621;DHT22;25309;48.686;9.170;2023-12-07T00:41:24;3.00;99.90
39621;DHT22;25309;48.686;9.170;2023-12-07T00:43:50;3.10;99.90
39621;DHT22;25309;48.686;9.170;2023-12-07T00:46:18;3.10;99.90
39621;DHT22;25309;48.686;9.170;2023-12-07T00:48:45;3.10;99.90
39621;DHT22;25309;48.686;9.170;2023-12-07T00:51:12;3.10;99.90
39621;DHT22;25309;48.686;9.170;2023-12-07T00:53:39;3.10;99.90
39621;DHT22;25309;48.686;9.170;2023-12-07T00:56:08;3.20;99.90
39621;DHT22;25309;48.686;9.170;2023-12-07T00:58:35;3.20;99.90
39621;DHT22;25309;48.686;9.170;2023-12-07T01:01:03;3.30;99.90
39621;DHT22;25309;48.686;9.170;2023-12-07T01:03:30;3.40;99.90
39621;DHT22;25309;48.686;9.170;2023-12-07T01:05:57;3.40;99.90
39621;DHT22;25309;48.686;9.170;2023-12-07T01:08:24;3.40;99.90
39621;DHT22;25309;48.686;9.170;2023-12-07T01:10:51;3.40;99.90
39621;DHT22;25309;48.686;9.170;2023-12-07T01:13:19;3.30;99.90
39621;DHT22;25309;48.686;9.170;2023-12-07T01:15:46;3.30;99.90
39621;DHT22;25309;48.686;9.170;2023-12-07T01:18:13;3.20;99.90
39621;DHT22;25309;48.686;9.170;2023-12-07T01:20:40;3.20;99.90
39621;DHT22;25309;48.686;9.170;2023-12-07T01:23:08;3.20;99.90
39621;DHT22;25309;48.686;9.170;2023-12-07T01:25:37;3.20;99.90
39621;DHT22;25309;48.686;9.170;2023-12-07T01:28:04;3.20;99.90
39621;DHT22;25309;48.686;9.170;2023-12-07T01:30:33;3.20;99.90
39621;DHT22;25309;48.686;9.170;2023-12-07T01:33:00;3.20;99.90
39621;DHT22;25309;48.686;9.170;2023-12-07T01:35:27;3.30;99.90
39621;DHT22;25309;48.686;9.170;2023-12-07T01:37:55;3.30;99.90
39621;DHT22;25309;48.686;9.170;2023-12-07T01:40:22;3.10;99.90
39621;DHT22;25309;48.686;9.170;2023-12-07T01:42:50;3.10;99.90
39621;DHT22;25309;48.686;9.170;2023-12-07T01:45:17;3.10;99.90
39621;DHT22;25309;48.686;9.170;2023-12-07T01:47:46;3.00;99.90
39621;DHT22;25309;48.686;9.170;2023-12-07T01:50:14;2.90;99.90
39621;DHT22;25309;48.686;9.170;2023-12-07T01:52:45;2.90;99.90
39621;DHT22;25309;48.686;9.170;2023-12-07T01:55:14;2.80;99.90
39621;DHT22;25309;48.686;9.170;2023-12-07T01:57:42;2.80;99.90
39621;DHT22;25309;48.686;9.170;2023-12-07T02:00:10;2.90;99.90
39621;DHT22;25309;48.686;9.170;2023-12-07T02:02:38;2.90;99.90
39621;DHT22;25309;48.686;9.170;2023-12-07T02:05:07;3.00;99.90
39621;DHT22;25309;48.686;9.170;2023-12-07T02:07:34;3.10;99.90
39621;DHT22;25309;48.686;9.170;2023-12-07T02:10:01;3.10;99.90
39621;DHT22;25309;48.686;9.170;2023-12-07T02:12:28;3.20;99.90
39621;DHT22;25309;48.686;9.170;2023-12-07T02:14:59;3.20;99.90
39621;DHT22;25309;48.686;9.170;2023-12-07T02:17:28;3.20;99.90
39621;DHT22;25309;48.686;9.170;2023-12-07T02:20:03;3.20;99.90
39621;DHT22;25309;48.686;9.170;2023-12-07T02:22:37;3.10;99.90
39621;DHT22;25309;48.686;9.170;2023-12-07T02:25:07;3.10;99.90
39621;DHT22;25309;48.686;9.170;2023-12-07T02:27:38;3.10;99.90
39621;DHT22;25309;48.686;9.170;2023-12-07T02:30:06;2.90;99.90
39621;DHT22;25309;48.686;9.170;2023-12-07T02:32:34;2.80;99.90
39621;DHT22;25309;48.686;9.170;2023-12-07T02:35:01;2.70;99.90
39621;DHT22;25309;48.686;9.170;2023-12-07T02:37:33;2.70;99.90
39621;DHT22;25309;48.686;9.170;2023-12-07T02:40:01;2.60;99.90
39621;DHT22;25309;48.686;9.170;2023-12-07T02:42:31;2.50;99.90
39621;DHT22;25309;48.686;9.170;2023-12-07T02:45:03;2.50;99.90
39621;DHT22;25309;48.686;9.170;2023-12-07T02:47:30;2.50;99.90
39621;DHT22;25309;48.686;9.170;2023-12-07T02:49:57;2.50;99.90
39621;DHT22;25309;48.686;9.170;2023-12-07T02:52:24;2.50;99.90
39621;DHT22;25309;48.686;9.170;2023-12-07T02:54:52;2.50;99.90
39621;DHT22;25309;48.686;9.170;2023-12-07T02:57:18;2.40;99.90
39621;DHT22;25309;48.686;9.170;2023-12-07T02:59:45;2.50;99.90
39621;DHT22;25309;48.686;9.170;2023-12-07T03:02:14;2.30;99.90
39621;DHT22;25309;48.686;9.170;2023-12-07T03:04:41;2.30;99.90
39621;DHT22;25309;48.686;9.170;2023-12-07T03:07:08;2.20;99.90
39621;DHT22;25309;48.686;9.170;2023-12-07T03:09:35;2.10;99.90
39621;DHT22;25309;48.686;9.170;2023-12-07T03:12:02;2.10;99.90
39621;DHT22;25309;48.686;9.170;2023-12-07T03:14:29;2.10;99.90
39621;DHT22;25309;48.686;9.170;2023-12-07T03:16:56;2.10;99.90
39621;DHT22;25309;48.686;9.170;2023-12-07T03:19:24;2.00;99.90
39621;DHT22;25309;48.686;9.170;2023-12-07T03:21:52;1.90;99.90
39621;DHT22;25309;48.686;9.170;2023-12-07T03:24:19;1.90;99.90
39621;DHT22;25309;48.686;9.170;2023-12-07T03:26:46;1.80;99.90
39621;DHT22;25309;48.686;9.170;2023-12-07T03:29:13;1.80;99.90
39621;DHT22;25309;48.686;9.170;2023-12-07T03:31:40;1.80;99.90
39621;DHT22;25309;48.686;9.170;2023-12-07T03:34:07;1.70;99.90
39621;DHT22;25309;48.686;9.170;2023-12-07T03:36:35;1.70;99.90
39621;DHT22;25309;48.686;9.170;2023-12-07T03:39:03;1.70;99.90
39621;DHT22;25309;48.686;9.170;2023-12-07T03:41:31;1.80;99.90
39621;DHT22;25309;48.686;9.170;2023-12-07T03:43:58;1.80;99.90
39621;DHT22;25309;48.686;9.170;2023-12-07T03:46:25;1.80;99.90
39621;DHT22;25309;48.686;9.170;2023-12-07T03:48:52;1.80;99.90
39621;DHT22;25309;48.686;9.170;2023-12-07T03:51:19;1.90;99.90
39621;DHT22;25309;48.686;9.170;2023-12-07T03:53:47;1.90;99.90
39621;DHT22;25309;48.686;9.170;2023-12-07T03:56:23;1.80;99.90
39621;DHT22;25309;48.686;9.170;2023-12-07T03:58:50;1.80;99.90
39621;DHT22;25309;48.686;9.170;2023-12-07T04:01:17;1.80;99.90
39621;DHT22;25309;48.686;9.170;2023-12-07T04:03:44;1.90;99.90
39621;DHT22;25309;48.686;9.170;2023-12-07T04:06:11;1.90;99.90
39621;DHT22;25309;48.686;9.170;2023-12-07T04:08:38;1.90;99.90
39621;DHT22;25309;48.686;9.170;2023-12-07T04:11:06;1.90;99.90
39621;DHT22;25309;48.686;9.170;2023-12-07T04:13:33;1.90;99.90
39621;DHT22;25309;48.686;9.170;2023-12-07T04:16:00;1.90;99.90
39621;DHT22;25309;48.686;9.170;2023-12-07T04:18:27;1.90;99.90
39621;DHT22;25309;48.686;9.170;2023-12-07T04:20:54;1.90;99.90
39621;DHT22;25309;48.686;9.170;2023-12-07T04:23:21;2.00;99.90
39621;DHT22;25309;48.686;9.170;2023-12-07T04:25:48;1.90;99.90
39621;DHT22;25309;48.686;9.170;2023-12-07T04:28:16;2.00;99.90
39621;DHT22;25309;48.686;9.170;2023-12-07T04:30:44;2.00;99.90
39621;DHT22;25309;48.686;9.170;2023-12-07T04:33:11;2.00;99.90
39621;DHT22;25309;48.686;9.170;2023-12-07T04:35:38;2.00;99.90
39621;DHT22;25309;48.686;9.170;2023-12-07T04:38:05;2.00;99.90
39621;DHT22;25309;48.686;9.170;2023-12-07T04:40:32;2.00;99.90
39621;DHT22;25309;48.686;9.170;2023-12-07T04:42:59;1.90;99.90
39621;DHT22;25309;48.686;9.170;2023-12-07T04:45:27;1.90;99.90
39621;DHT22;25309;48.686;9.170;2023-12-07T04:47:54;1.90;99.90
39621;DHT22;25309;48.686;9.170;2023-12-07T04:50:23;1.90;99.90
39621;DHT22;25309;48.686;9.170;2023-12-07T04:52:50;1.90;99.90
39621;DHT22;25309;48.686;9.170;2023-12-07T04:55:17;1.90;99.90
39621;DHT22;25309;48.686;9.170;2023-12-07T04:57:44;1.90;99.90
39621;DHT22;25309;48.686;9.170;2023-12-07T05:00:12;1.90;99.90
39621;DHT22;25309;48.686;9.170;2023-12-07T05:02:41;1.90;99.90
39621;DHT22;25309;48.686;9.170;2023-12-07T05:05:08;1.90;99.90
39621;DHT22;25309;48.686;9.170;2023-12-07T05:07:36;1.90;99.90
39621;DHT22;25309;48.686;9.170;2023-12-07T05:10:03;1.80;99.90
39621;DHT22;25309;48.686;9.170;2023-12-07T05:12:31;1.70;99.90
39621;DHT22;25309;48.686;9.170;2023-12-07T05:14:58;1.60;99.90
39621;DHT22;25309;48.686;9.170;2023-12-07T05:17:25;1.60;99.90
39621;DHT22;25309;48.686;9.170;2023-12-07T05:19:53;1.60;99.90
39621;DHT22;25309;48.686;9.170;2023-12-07T05:22:20;1.60;99.90
39621;DHT22;25309;48.686;9.170;2023-12-07T05:24:48;1.60;99.90
39621;DHT22;25309;48.686;9.170;2023-12-07T05:27:17;1.60;99.90
39621;DHT22;25309;48.686;9.170;2023-12-07T05:29:44;1.50;99.90
39621;DHT22;25309;48.686;9.170;2023-12-07T05:32:11;1.60;99.90
39621;DHT22;25309;48.686;9.170;2023-12-07T05:34:38;1.50;99.90
39621;DHT22;25309;48.686;9.170;2023-12-07T05:37:07;1.50;99.90
39621;DHT22;25309;48.686;9.170;2023-12-07T05:39:34;1.50;99.90
39621;DHT22;25309;48.686;9.170;2023-12-07T05:42:01;1.50;99.90
39621;DHT22;25309;48.686;9.170;2023-12-07T05:44:30;1.40;99.90
39621;DHT22;25309;48.686;9.170;2023-12-07T05:46:58;1.30;99.90
39621;DHT22;25309;48.686;9.170;2023-12-07T05:49:25;1.30;99.90
39621;DHT22;25309;48.686;9.170;2023-12-07T05:51:52;1.30;99.90
39621;DHT22;25309;48.686;9.170;2023-12-07T05:54:21;1.30;99.90
39621;DHT22;25309;48.686;9.170;2023-12-07T05:56:51;1.30;99.90
39621;DHT22;25309;48.686;9.170;2023-12-07T05:59:18;1.30;99.90
39621;DHT22;25309;48.686;9.170;2023-12-07T06:01:44;1.20;99.90
39621;DHT22;25309;48.686;9.170;2023-12-07T06:04:12;1.30;99.90
39621;DHT22;25309;48.686;9.170;2023-12-07T06:06:39;1.30;99.90
39621;DHT22;25309;48.686;9.170;2023-12-07T06:09:07;1.30;99.90
39621;DHT22;25309;48.686;9.170;2023-12-07T06:11:36;1.30;99.90
39621;DHT22;25309;48.686;9.170;2023-12-07T06:14:03;1.30;99.90
39621;DHT22;25309;48.686;9.170;2023-12-07T06:16:32;1.30;99.90
39621;DHT22;25309;48.686;9.170;2023-12-07T06:18:59;1.40;99.90
39621;DHT22;25309;48.686;9.170;2023-12-07T06:21:26;1.40;99.90
39621;DHT22;25309;48.686;9.170;2023-12-07T06:23:56;1.40;99.90
39621;DHT22;25309;48.686;9.170;2023-12-07T06:26:24;1.40;99.90
39621;DHT22;25309;48.686;9.170;2023-12-07T06:28:52;1.40;99.90
39621;DHT22;25309;48.686;9.170;2023-12-07T06:31:19;1.40;99.90
39621;DHT22;25309;48.686;9.170;2023-12-07T06:33:48;1.40;99.90
39621;DHT22;25309;48.686;9.170;2023-12-07T06:36:19;1.40;99.90
39621;DHT22;25309;48.686;9.170;2023-12-07T06:38:47;1.40;99.90
39621;DHT22;25309;48.686;9.170;2023-12-07T06:41:14;1.40;99.90
39621;DHT22;25309;48.686;9.170;2023-12-07T06:43:42;1.40;99.90
39621;DHT22;25309;48.686;9.170;2023-12-07T06:46:13;1.40;99.90
39621;DHT22;25309;48.686;9.170;2023-12-07T06:48:40;1.30;99.90
39621;DHT22;25309;48.686;9.170;2023-12-07T06:51:08;1.40;99.90
39621;DHT22;25309;48.686;9.170;2023-12-07T06:53:34;1.40;99.90
39621;DHT22;25309;48.686;9.170;2023-12-07T06:56:01;1.30;99.90
39621;DHT22;25309;48.686;9.170;2023-12-07T06:58:29;1.30;99.90
39621;DHT22;25309;48.686;9.170;2023-12-07T07:00:56;1.30;99.90
39621;DHT22;25309;48.686;9.170;2023-12-07T07:03:25;1.30;99.90
39621;DHT22;25309;48.686;9.170;2023-12-07T07:05:54;1.30;99.90
39621;DHT22;25309;48.686;9.170;2023-12-07T07:08:21;1.30;99.90
39621;DHT22;25309;48.686;9.170;2023-12-07T07:10:48;1.30;99.90
39621;DHT22;25309;48.686;9.170;2023-12-07T07:13:16;1.20;99.90
39621;DHT22;25309;48.686;9.170;2023-12-07T07:15:44;1.20;99.90
39621;DHT22;25309;48.686;9.170;2023-12-07T07:18:11;1.20;99.90
39621;DHT22;25309;48.686;9.170;2023-12-07T07:20:39;1.10;99.90
39621;DHT22;25309;48.686;9.170;2023-12-07T07:23:06;1.10;99.90
39621;DHT22;25309;48.686;9.170;2023-12-07T07:25:35;1.10;99.90
39621;DHT22;25309;48.686;9.170;2023-12-07T07:28:02;1.10;99.90
39621;DHT22;25309;48.686;9.170;2023-12-07T07:30:30;1.20;99.90
39621;DHT22;25309;48.686;9.170;2023-12-07T07:32:57;1.20;99.90
39621;DHT22;25309;48.686;9.170;2023-12-07T07:35:24;1.30;99.90
39621;DHT22;25309;48.686;9.170;2023-12-07T07:37:52;1.40;99.90
39621;DHT22;25309;48.686;9.170;2023-12-07T07:40:20;1.50;99.90
39621;DHT22;25309;48.686;9.170;2023-12-07T07:42:48;1.60;99.90
39621;DHT22;25309;48.686;9.170;2023-12-07T07:45:14;1.60;99.90
39621;DHT22;25309;48.686;9.170;2023-12-07T07:47:43;1.70;99.90
39621;DHT22;25309;48.686;9.170;2023-12-07T07:50:10;1.50;99.90
39621;DHT22;25309;48.686;9.170;2023-12-07T07:52:38;1.30;99.90
39621;DHT22;25309;48.686;9.170;2023-12-07T07:55:09;1.20;99.90
39621;DHT22;25309;48.686;9.170;2023-12-07T07:57:37;1.20;99.90
39621;DHT22;25309;48.686;9.170;2023-12-07T08:00:05;1.20;99.90
39621;DHT22;25309;48.686;9.170;2023-12-07T08:02:32;1.30;99.90
39621;DHT22;25309;48.686;9.170;2023-12-07T08:04:59;1.40;99.90
39621;DHT22;25309;48.686;9.170;2023-12-07T08:07:26;1.40;99.90
39621;DHT22;25309;48.686;9.170;2023-12-07T08:09:54;1.40;99.90
39621;DHT22;25309;48.686;9.170;2023-12-07T08:12:22;1.40;99.90
39621;DHT22;25309;48.686;9.170;2023-12-07T08:14:49;1.50;99.90
39621;DHT22;25309;48.686;9.170;2023-12-07T08:17:17;1.60;99.90
39621;DHT22;25309;48.686;9.170;2023-12-07T08:19:46;1.60;99.90
39621;DHT22;25309;48.686;9.170;2023-12-07T08:22:14;1.70;99.90
39621;DHT22;25309;48.686;9.170;2023-12-07T08:24:42;1.80;99.90
39621;DHT22;25309;48.686;9.170;2023-12-07T08:27:11;1.90;99.90
39621;DHT22;25309;48.686;9.170;2023-12-07T08:29:39;1.90;99.90
39621;DHT22;25309;48.686;9.170;2023-12-07T08:32:06;2.00;99.90
39621;DHT22;25309;48.686;9.170;2023-12-07T08:34:33;2.00;99.90
39621;DHT22;25309;48.686;9.170;2023-12-07T08:37:00;2.10;99.90
39621;DHT22;25309;48.686;9.170;2023-12-07T08:39:27;2.20;99.90
39621;DHT22;25309;48.686;9.170;2023-12-07T08:41:54;2.20;99.90
39621;DHT22;25309;48.686;9.170;2023-12-07T08:44:21;2.30;99.90
39621;DHT22;25309;48.686;9.170;2023-12-07T08:46:50;2.30;99.90
39621;DHT22;25309;48.686;9.170;2023-12-07T08:49:17;2.40;99.90
39621;DHT22;25309;48.686;9.170;2023-12-07T08:51:44;2.40;99.90
39621;DHT22;25309;48.686;9.170;2023-12-07T08:54:31;2.50;99.90
39621;DHT22;25309;48.686;9.170;2023-12-07T08:56:58;2.60;99.90
39621;DHT22;25309;48.686;9.170;2023-12-07T08:59:25;2.60;99.90
39621;DHT22;25309;48.686;9.170;2023-12-07T09:01:54;2.70;99.90
39621;DHT22;25309;48.686;9.170;2023-12-07T09:04:21;2.80;99.90
39621;DHT22;25309;48.686;9.170;2023-12-07T09:06:48;2.90;99.90
39621;DHT22;25309;48.686;9.170;2023-12-07T09:09:16;3.10;99.90
39621;DHT22;25309;48.686;9.170;2023-12-07T09:11:43;3.30;99.90
39621;DHT22;25309;48.686;9.170;2023-12-07T09:14:10;3.60;99.90
39621;DHT22;25309;48.686;9.170;2023-12-07T09:16:43;3.90;99.90
39621;DHT22;25309;48.686;9.170;2023-12-07T09:19:11;4.30;99.90
39621;DHT22;25309;48.686;9.170;2023-12-07T09:21:39;5.00;99.90
39621;DHT22;25309;48.686;9.170;2023-12-07T09:24:06;5.70;99.90
39621;DHT22;25309;48.686;9.170;2023-12-07T09:26:33;6.40;99.90
39621;DHT22;25309;48.686;9.170;2023-12-07T09:29:00;6.90;99.90
39621;DHT22;25309;48.686;9.170;2023-12-07T09:31:27;7.60;99.90
39621;DHT22;25309;48.686;9.170;2023-12-07T09:33:54;8.10;99.90
39621;DHT22;25309;48.686;9.170;2023-12-07T09:36:38;8.60;99.90
39621;DHT22;25309;48.686;9.170;2023-12-07T09:39:05;9.20;99.90
39621;DHT22;25309;48.686;9.170;2023-12-07T09:41:33;9.30;99.90
39621;DHT22;25309;48.686;9.170;2023-12-07T09:44:00;9.20;99.90
39621;DHT22;25309;48.686;9.170;2023-12-07T09:46:28;9.60;99.90
39621;DHT22;25309;48.686;9.170;2023-12-07T09:48:55;10.00;99.90
39621;DHT22;25309;48.686;9.170;2023-12-07T09:51:22;10.30;99.90
39621;DHT22;25309;48.686;9.170;2023-12-07T09:53:54;10.60;99.90
39621;DHT22;25309;48.686;9.170;2023-12-07T09:56:21;10.90;99.90
39621;DHT22;25309;48.686;9.170;2023-12-07T09:58:48;11.40;99.90
39621;DHT22;25309;48.686;9.170;2023-12-07T10:01:15;11.50;99.90
39621;DHT22;25309;48.686;9.170;2023-12-07T10:03:43;11.70;99.90
39621;DHT22;25309;48.686;9.170;2023-12-07T10:06:11;11.80;99.90
39621;DHT22;25309;48.686;9.170;2023-12-07T10:08:38;12.00;99.90
39621;DHT22;25309;48.686;9.170;2023-12-07T10:11:07;12.10;99.90
39621;DHT22;25309;48.686;9.170;2023-12-07T10:13:35;12.10;99.90
39621;DHT22;25309;48.686;9.170;2023-12-07T10:16:07;12.20;99.90
39621;DHT22;25309;48.686;9.170;2023-12-07T10:18:36;12.10;99.90
39621;DHT22;25309;48.686;9.170;2023-12-07T10:21:05;12.30;99.90
39621;DHT22;25309;48.686;9.170;2023-12-07T10:23:32;12.40;99.90
39621;DHT22;25309;48.686;9.170;2023-12-07T10:25:59;12.50;99.20
39621;DHT22;25309;48.686;9.170;2023-12-07T10:28:28;12.30;98.40
39621;DHT22;25309;48.686;9.170;2023-12-07T10:30:57;12.00;97.90
39621;DHT22;25309;48.686;9.170;2023-12-07T10:33:25;12.10;99.70
39621;DHT22;25309;48.686;9.170;2023-12-07T10:35:52;12.30;99.20
39621;DHT22;25309;48.686;9.170;2023-12-07T10:38:19;12.10;97.90
39621;DHT22;25309;48.686;9.170;2023-12-07T10:40:46;12.30;99.50
39621;DHT22;25309;48.686;9.170;2023-12-07T10:43:15;12.50;97.90
39621;DHT22;25309;48.686;9.170;2023-12-07T10:45:48;12.50;96.30
39621;DHT22;25309;48.686;9.170;2023-12-07T10:48:15;12.40;97.20
39621;DHT22;25309;48.686;9.170;2023-12-07T10:50:46;12.50;95.60
39621;DHT22;25309;48.686;9.170;2023-12-07T10:53:19;12.50;96.30
39621;DHT22;25309;48.686;9.170;2023-12-07T10:55:52;12.80;96.80
39621;DHT22;25309;48.686;9.170;2023-12-07T10:58:20;12.90;95.20
39621;DHT22;25309;48.686;9.170;2023-12-07T11:00:49;13.10;95.80
39621;DHT22;25309;48.686;9.170;2023-12-07T11:03:17;13.30;95.60
39621;DHT22;25309;48.686;9.170;2023-12-07T11:05:46;13.40;97.10
39621;DHT22;25309;48.686;9.170;2023-12-07T11:08:21;13.40;95.50
39621;DHT22;25309;48.686;9.170;2023-12-07T11:10:56;13.30;96.00
39621;DHT22;25309;48.686;9.170;2023-12-07T11:13:28;13.30;96.50
39621;DHT22;25309;48.686;9.170;2023-12-07T11:15:57;13.40;95.80
39621;DHT22;25309;48.686;9.170;2023-12-07T11:18:25;13.50;95.40
39621;DHT22;25309;48.686;9.170;2023-12-07T11:20:53;13.20;95.00
39621;DHT22;25309;48.686;9.170;2023-12-07T11:23:21;13.30;94.80
39621;DHT22;25309;48.686;9.170;2023-12-07T11:25:49;13.50;96.00
39621;DHT22;25309;48.686;9.170;2023-12-07T11:28:17;13.60;95.00
39621;DHT22;25309;48.686;9.170;2023-12-07T11:30:45;13.40;95.00
39621;DHT22;25309;48.686;9.170;2023-12-07T11:33:15;13.60;94.80
39621;DHT22;25309;48.686;9.170;2023-12-07T11:36:03;13.40;94.50
39621;DHT22;25309;48.686;9.170;2023-12-07T11:38:30;13.70;95.40
39621;DHT22;25309;48.686;9.170;2023-12-07T11:40:57;13.50;94.90
39621;DHT22;25309;48.686;9.170;2023-12-07T11:43:37;13.40;94.80
39621;DHT22;25309;48.686;9.170;2023-12-07T11:46:07;13.50;94.90
39621;DHT22;25309;48.686;9.170;2023-12-07T11:48:36;13.90;94.80
39621;DHT22;25309;48.686;9.170;2023-12-07T11:51:04;13.30;94.00
39621;DHT22;25309;48.686;9.170;2023-12-07T11:53:33;13.30;94.20
39621;DHT22;25309;48.686;9.170;2023-12-07T11:56:03;13.00;93.20
39621;DHT22;25309;48.686;9.170;2023-12-07T11:58:31;12.70;93.80
39621;DHT22;25309;48.686;9.170;2023-12-07T12:01:04;13.00;94.40
39621;DHT22;25309;48.686;9.170;2023-12-07T12:03:32;12.80;94.90
39621;DHT22;25309;48.686;9.170;2023-12-07T12:06:03;12.90;96.00
39621;DHT22;25309;48.686;9.170;2023-12-07T12:08:31;12.40;95.40
39621;DHT22;25309;48.686;9.170;2023-12-07T12:10:58;12.10;95.60
39621;DHT22;25309;48.686;9.170;2023-12-07T12:13:29;12.00;94.60
39621;DHT22;25309;48.686;9.170;2023-12-07T12:15:57;11.90;95.70
39621;DHT22;25309;48.686;9.170;2023-12-07T12:20:56;11.70;93.30
39621;DHT22;25309;48.686;9.170;2023-12-07T12:23:27;11.40;93.80
39621;DHT22;25309;48.686;9.170;2023-12-07T12:25:56;11.10;94.00
39621;DHT22;25309;48.686;9.170;2023-12-07T12:28:24;10.90;94.10
39621;DHT22;25309;48.686;9.170;2023-12-07T12:30:51;10.90;94.30
39621;DHT22;25309;48.686;9.170;2023-12-07T12:33:19;11.00;94.60
39621;DHT22;25309;48.686;9.170;2023-12-07T12:35:46;11.30;93.40
39621;DHT22;25309;48.686;9.170;2023-12-07T12:38:13;11.40;93.40
39621;DHT22;25309;48.686;9.170;2023-12-07T12:40:55;11.30;93.00
39621;DHT22;25309;48.686;9.170;2023-12-07T12:43:22;11.60;93.50
39621;DHT22;25309;48.686;9.170;2023-12-07T12:45:49;11.60;93.40
39621;DHT22;25309;48.686;9.170;2023-12-07T12:48:32;11.40;93.70
39621;DHT22;25309;48.686;9.170;2023-12-07T12:51:07;11.30;94.20
39621;DHT22;25309;48.686;9.170;2023-12-07T12:53:34;11.00;93.90
39621;DHT22;25309;48.686;9.170;2023-12-07T12:56:04;10.90;93.90
39621;DHT22;25309;48.686;9.170;2023-12-07T12:58:31;10.90;93.90
39621;DHT22;25309;48.686;9.170;2023-12-07T13:00:59;10.60;94.20
39621;DHT22;25309;48.686;9.170;2023-12-07T13:03:29;10.40;95.20
39621;DHT22;25309;48.686;9.170;2023-12-07T13:05:56;10.80;94.50
39621;DHT22;25309;48.686;9.170;2023-12-07T13:08:23;10.80;94.40
39621;DHT22;25309;48.686;9.170;2023-12-07T13:10:50;11.10;94.00
39621;DHT22;25309;48.686;9.170;2023-12-07T13:13:18;11.20;93.90
39621;DHT22;25309;48.686;9.170;2023-12-07T13:15:45;10.90;94.20
39621;DHT22;25309;48.686;9.170;2023-12-07T13:18:12;10.80;94.60
39621;DHT22;25309;48.686;9.170;2023-12-07T13:20:40;10.40;94.40
39621;DHT22;25309;48.686;9.170;2023-12-07T13:23:21;10.30;95.00
39621;DHT22;25309;48.686;9.170;2023-12-07T13:25:48;10.30;95.40
39621;DHT22;25309;48.686;9.170;2023-12-07T13:28:15;10.20;94.90
39621;DHT22;25309;48.686;9.170;2023-12-07T13:30:44;10.30;94.20
39621;DHT22;25309;48.686;9.170;2023-12-07T13:33:11;10.20;93.90
39621;DHT22;25309;48.686;9.170;2023-12-07T13:35:53;9.70;94.20
39621;DHT22;25309;48.686;9.170;2023-12-07T13:38:22;9.60;94.40
39621;DHT22;25309;48.686;9.170;2023-12-07T13:40:50;9.30;94.70
39621;DHT22;25309;48.686;9.170;2023-12-07T13:43:17;9.30;95.20
39621;DHT22;25309;48.686;9.170;2023-12-07T13:45:46;9.40;94.90
39621;DHT22;25309;48.686;9.170;2023-12-07T13:48:13;9.10;94.90
39621;DHT22;25309;48.686;9.170;2023-12-07T13:50:42;9.00;96.10
39621;DHT22;25309;48.686;9.170;2023-12-07T13:53:09;9.10;96.10
39621;DHT22;25309;48.686;9.170;2023-12-07T13:55:38;9.10;95.40
39621;DHT22;25309;48.686;9.170;2023-12-07T13:58:06;9.00;95.50
39621;DHT22;25309;48.686;9.170;2023-12-07T14:00:39;8.90;95.70
39621;DHT22;25309;48.686;9.170;2023-12-07T14:03:08;8.80;95.40
39621;DHT22;25309;48.686;9.170;2023-12-07T14:05:35;8.40;94.60
39621;DHT22;25309;48.686;9.170;2023-12-07T14:08:02;8.60;94.90
39621;DHT22;25309;48.686;9.170;2023-12-07T14:10:29;8.40;94.30
39621;DHT22;25309;48.686;9.170;2023-12-07T14:12:58;8.50;94.50
39621;DHT22;25309;48.686;9.170;2023-12-07T14:15:25;8.40;94.40
39621;DHT22;25309;48.686;9.170;2023-12-07T14:18:09;8.20;94.20
39621;DHT22;25309;48.686;9.170;2023-12-07T14:20:36;7.90;94.30
39621;DHT22;25309;48.686;9.170;2023-12-07T14:23:24;7.70;93.30
39621;DHT22;25309;48.686;9.170;2023-12-07T14:25:51;7.20;93.50
39621;DHT22;25309;48.686;9.170;2023-12-07T14:28:18;7.00;94.30
39621;DHT22;25309;48.686;9.170;2023-12-07T14:30:45;6.80;94.40
39621;DHT22;25309;48.686;9.170;2023-12-07T14:33:14;6.70;95.10
39621;DHT22;25309;48.686;9.170;2023-12-07T14:35:41;6.30;95.20
39621;DHT22;25309;48.686;9.170;2023-12-07T14:38:08;6.10;95.80
39621;DHT22;25309;48.686;9.170;2023-12-07T14:40:35;6.10;96.00
39621;DHT22;25309;48.686;9.170;2023-12-07T14:43:02;6.00;96.10
39621;DHT22;25309;48.686;9.170;2023-12-07T14:45:30;5.90;96.60
39621;DHT22;25309;48.686;9.170;2023-12-07T14:47:57;5.80;96.60
39621;DHT22;25309;48.686;9.170;2023-12-07T14:50:26;5.70;96.90
39621;DHT22;25309;48.686;9.170;2023-12-07T14:52:53;5.50;96.90
39621;DHT22;25309;48.686;9.170;2023-12-07T14:55:20;5.40;96.90
39621;DHT22;25309;48.686;9.170;2023-12-07T14:57:47;5.40;97.20
39621;DHT22;25309;48.686;9.170;2023-12-07T15:00:16;5.20;97.60
39621;DHT22;25309;48.686;9.170;2023-12-07T15:02:44;5.20;97.60
39621;DHT22;25309;48.686;9.170;2023-12-07T15:05:11;5.00;97.20
39621;DHT22;25309;48.686;9.170;2023-12-07T15:07:40;4.90;97.40
39621;DHT22;25309;48.686;9.170;2023-12-07T15:10:07;4.80;97.40
39621;DHT22;25309;48.686;9.170;2023-12-07T15:12:34;4.70;97.50
39621;DHT22;25309;48.686;9.170;2023-12-07T15:15:02;4.70;97.90
39621;DHT22;25309;48.686;9.170;2023-12-07T15:17:32;4.50;98.30
39621;DHT22;25309;48.686;9.170;2023-12-07T15:20:00;4.40;98.30
39621;DHT22;25309;48.686;9.170;2023-12-07T15:22:27;4.30;98.50
39621;DHT22;25309;48.686;9.170;2023-12-07T15:24:56;4.30;98.90
39621;DHT22;25309;48.686;9.170;2023-12-07T15:27:24;4.20;98.80
39621;DHT22;25309;48.686;9.170;2023-12-07T15:29:51;4.10;99.00
39621;DHT22;25309;48.686;9.170;2023-12-07T15:32:18;4.10;99.50
39621;DHT22;25309;48.686;9.170;2023-12-07T15:34:45;4.10;99.20
39621;DHT22;25309;48.686;9.170;2023-12-07T15:37:13;3.90;99.10
39621;DHT22;25309;48.686;9.170;2023-12-07T15:39:41;3.90;99.60
39621;DHT22;25309;48.686;9.170;2023-12-07T15:42:10;3.80;99.80
39621;DHT22;25309;48.686;9.170;2023-12-07T15:44:38;3.80;99.90
39621;DHT22;25309;48.686;9.170;2023-12-07T15:47:07;3.60;99.90
39621;DHT22;25309;48.686;9.170;2023-12-07T15:49:34;3.60;99.90
39621;DHT22;25309;48.686;9.170;2023-12-07T15:52:02;3.70;99.90